Cameron, Louisiana
Current Conditions -  °F | °C
As of 3:15 AM on Monday 20 Oct 2014 (Local Time) from KCVW Reporting Station
NA  
Wind Chill: 63°   Ceiling: NA
Heat Index: 63°   Visibility: 10mi
Dew Point: 57°   Wind: 7mph
Humidity: 82%   Direction: 70°ENE
Pressure: 30.05"   Gusts: NA
Location:  29.8°N, 93.33°W
Report Text: KCVW 200815Z AUTO 07006KT 10SM 17/14 A3005 RMK A01
Loading
Personal Weather Stations






























Interactive Weather Map
Tropical Storm Tracking
New forecast layout! Learn more

10-Day Weather Forecast

Advertisements
Track Severe Weather on mobile